createdAt,value
2019-03-17T00:00:48.310Z,4.17
2019-03-17T00:03:19.917Z,3.83
2019-03-17T00:05:52.101Z,4.33
2019-03-17T00:08:23.708Z,3.47
2019-03-17T00:10:55.327Z,3.00
2019-03-17T00:13:26.942Z,2.93
2019-03-17T00:15:58.572Z,2.80
2019-03-17T00:18:30.249Z,3.43
2019-03-17T00:21:02.232Z,3.47
2019-03-17T00:23:33.826Z,2.80
2019-03-17T00:26:05.676Z,3.27
2019-03-17T00:28:37.348Z,3.13
2019-03-17T00:31:09.015Z,3.00
2019-03-17T00:33:40.794Z,4.40
2019-03-17T00:36:12.806Z,5.17
2019-03-17T00:38:44.420Z,4.90
2019-03-17T00:41:16.074Z,4.33
2019-03-17T00:43:47.675Z,3.87
2019-03-17T00:46:19.301Z,3.60
2019-03-17T00:48:50.995Z,3.40
2019-03-17T00:51:22.883Z,4.33
2019-03-17T00:53:54.833Z,4.60
2019-03-17T00:56:26.521Z,4.50
2019-03-17T00:58:58.154Z,3.70
2019-03-17T01:01:29.981Z,3.90
2019-03-17T01:04:01.701Z,5.03
2019-03-17T01:06:33.403Z,4.27
2019-03-17T01:09:06.567Z,4.07
2019-03-17T01:11:38.160Z,4.43
2019-03-17T01:14:10.332Z,4.37
2019-03-17T01:16:42.026Z,4.20
2019-03-17T01:19:13.679Z,4.47
2019-03-17T01:21:45.331Z,5.10
2019-03-17T01:24:17.230Z,4.30
2019-03-17T01:26:49.095Z,4.83
2019-03-17T01:29:20.750Z,4.30
2019-03-17T01:31:52.409Z,3.90
2019-03-17T01:34:24.093Z,6.17
2019-03-17T01:36:55.756Z,5.30
2019-03-17T01:39:27.356Z,3.90
2019-03-17T01:41:58.981Z,4.97
2019-03-17T01:44:30.890Z,4.10
2019-03-17T01:47:02.465Z,4.23
2019-03-17T01:49:34.108Z,3.73
2019-03-17T01:52:05.684Z,3.50
2019-03-17T01:54:37.348Z,3.70
2019-03-17T01:57:08.944Z,3.77
2019-03-17T01:59:40.997Z,4.67
2019-03-17T02:02:12.564Z,4.30
2019-03-17T02:04:44.385Z,4.10
2019-03-17T02:07:16.048Z,4.00
2019-03-17T02:09:47.668Z,3.90
2019-03-17T02:12:19.227Z,4.40
2019-03-17T02:14:51.292Z,4.10
2019-03-17T02:17:22.903Z,3.90
2019-03-17T02:19:54.539Z,3.50
2019-03-17T02:22:26.231Z,4.10
2019-03-17T02:24:57.980Z,3.70
2019-03-17T02:27:29.545Z,3.90
2019-03-17T02:30:01.301Z,3.70
2019-03-17T02:32:33.421Z,4.60
2019-03-17T02:35:05.766Z,3.70
2019-03-17T02:37:37.413Z,3.70
2019-03-17T02:40:09.024Z,4.00
2019-03-17T02:42:40.785Z,3.80
2019-03-17T02:45:12.874Z,4.40
2019-03-17T02:47:44.930Z,3.30
2019-03-17T02:50:16.535Z,3.80
2019-03-17T02:52:48.140Z,3.70
2019-03-17T02:55:19.850Z,4.03
2019-03-17T02:57:51.615Z,3.50
2019-03-17T03:00:23.220Z,3.43
2019-03-17T03:02:55.544Z,3.80
2019-03-17T03:05:27.108Z,3.93
2019-03-17T03:07:58.776Z,3.80
2019-03-17T03:10:32.018Z,4.13
2019-03-17T03:13:03.814Z,3.90
2019-03-17T03:15:35.390Z,3.87
2019-03-17T03:18:07.455Z,4.40
2019-03-17T03:20:39.075Z,3.80
2019-03-17T03:23:10.677Z,3.70
2019-03-17T03:25:42.445Z,4.20
2019-03-17T03:28:14.171Z,3.87
2019-03-17T03:30:45.721Z,3.80
2019-03-17T03:33:18.007Z,3.90
2019-03-17T03:35:49.603Z,3.47
2019-03-17T03:38:21.182Z,4.00
2019-03-17T03:40:52.912Z,4.87
2019-03-17T03:43:24.525Z,4.13
2019-03-17T03:45:56.173Z,4.13
2019-03-17T03:48:27.802Z,4.20
2019-03-17T03:51:00.081Z,4.40
2019-03-17T03:53:31.721Z,4.80
2019-03-17T03:56:03.533Z,4.70
2019-03-17T03:58:35.148Z,4.10
2019-03-17T04:01:06.835Z,4.50
2019-03-17T04:03:38.484Z,3.97
2019-03-17T04:06:25.194Z,3.87
2019-03-17T04:08:44.019Z,4.63
2019-03-17T04:11:15.645Z,3.93
2019-03-17T04:13:47.196Z,4.30
2019-03-17T04:16:18.777Z,4.30
2019-03-17T04:18:50.438Z,3.73
2019-03-17T04:21:22.843Z,4.60
2019-03-17T04:23:54.501Z,3.90
2019-03-17T04:26:26.565Z,4.03
2019-03-17T04:28:58.167Z,4.53
2019-03-17T04:31:29.799Z,3.73
2019-03-17T04:34:01.560Z,3.87
2019-03-17T04:36:40.248Z,4.33
2019-03-17T04:39:08.868Z,4.13
2019-03-17T04:41:40.465Z,4.77
2019-03-17T04:44:20.814Z,3.63
2019-03-17T04:46:45.414Z,3.90
2019-03-17T04:49:17.000Z,3.87
2019-03-17T04:51:48.786Z,3.67
2019-03-17T04:54:20.775Z,4.00
2019-03-17T04:56:52.798Z,4.50
2019-03-17T04:59:24.371Z,3.97
2019-03-17T05:01:56.058Z,3.90
2019-03-17T05:04:27.729Z,4.70
2019-03-17T05:06:59.334Z,3.80
2019-03-17T05:09:30.927Z,4.00
2019-03-17T05:12:02.933Z,3.47
2019-03-17T05:14:34.628Z,3.33
2019-03-17T05:17:06.254Z,4.23
2019-03-17T05:19:37.852Z,3.77
2019-03-17T05:22:09.509Z,3.60
2019-03-17T05:24:41.425Z,5.07
2019-03-17T05:27:13.543Z,3.67
2019-03-17T05:29:45.137Z,3.30
2019-03-17T05:32:16.767Z,3.40
2019-03-17T05:34:48.352Z,3.63
2019-03-17T05:37:19.973Z,3.20
2019-03-17T05:39:51.674Z,3.93
2019-03-17T05:42:23.249Z,3.43
2019-03-17T05:44:55.183Z,4.10
2019-03-17T05:47:26.851Z,3.87
2019-03-17T05:49:58.722Z,4.07
2019-03-17T05:52:30.310Z,4.10
2019-03-17T05:55:02.031Z,4.00
2019-03-17T05:57:33.708Z,3.83
2019-03-17T06:00:06.321Z,3.33
2019-03-17T06:02:37.914Z,3.40
2019-03-17T06:05:10.333Z,4.17
2019-03-17T06:07:41.931Z,2.73
2019-03-17T06:10:13.748Z,3.07
2019-03-17T06:12:45.698Z,3.37
2019-03-17T06:15:17.825Z,3.10
2019-03-17T06:17:49.615Z,2.80
2019-03-17T06:20:21.326Z,3.20
2019-03-17T06:22:52.906Z,2.90
2019-03-17T06:25:24.645Z,3.30
2019-03-17T06:27:56.516Z,3.17
2019-03-17T06:30:28.885Z,3.07
2019-03-17T06:33:00.657Z,2.97
2019-03-17T06:35:32.267Z,2.97
2019-03-17T06:38:03.887Z,2.93
2019-03-17T06:40:35.499Z,2.40
2019-03-17T06:43:07.351Z,2.20
2019-03-17T06:45:39.592Z,1.90
2019-03-17T06:48:11.207Z,1.80
2019-03-17T06:50:42.863Z,1.80
2019-03-17T06:53:14.641Z,1.40
2019-03-17T06:55:46.415Z,1.53
2019-03-17T06:58:18.018Z,1.60
2019-03-17T07:00:50.538Z,1.60
2019-03-17T07:03:22.161Z,1.53
2019-03-17T07:05:54.075Z,2.20
2019-03-17T07:08:25.674Z,1.47
2019-03-17T07:10:57.405Z,1.60
2019-03-17T07:13:29.048Z,1.80
2019-03-17T07:16:01.331Z,1.80
2019-03-17T07:18:32.969Z,1.50
2019-03-17T07:21:04.675Z,1.50
2019-03-17T07:23:36.318Z,2.00
2019-03-17T07:26:08.514Z,1.77
2019-03-17T07:28:40.145Z,1.60
2019-03-17T07:31:11.884Z,1.83
2019-03-17T07:33:44.110Z,1.60
2019-03-17T07:36:15.706Z,1.93
2019-03-17T07:38:47.367Z,2.03
2019-03-17T07:41:18.982Z,2.67
2019-03-17T07:43:50.601Z,1.90
2019-03-17T07:46:22.212Z,2.63
2019-03-17T07:48:54.218Z,1.83
2019-03-17T07:51:25.936Z,1.70
2019-03-17T07:53:57.587Z,2.03
2019-03-17T07:56:29.291Z,1.80
2019-03-17T07:59:00.997Z,1.70
2019-03-17T08:01:32.700Z,1.60
2019-03-17T08:04:05.157Z,2.10
2019-03-17T08:06:36.774Z,1.90
2019-03-17T08:09:09.645Z,1.70
2019-03-17T08:11:41.292Z,2.10
2019-03-17T08:14:12.940Z,2.00
2019-03-17T08:16:44.622Z,1.80
2019-03-17T08:19:16.943Z,2.10
2019-03-17T08:21:48.600Z,1.87
2019-03-17T08:24:20.210Z,1.93
2019-03-17T08:26:52.083Z,1.97
2019-03-17T08:29:23.915Z,2.13
2019-03-17T08:31:55.586Z,2.10
2019-03-17T08:34:27.892Z,2.17
2019-03-17T08:36:59.577Z,1.97
2019-03-17T08:39:31.309Z,2.00
2019-03-17T08:42:02.994Z,2.00
2019-03-17T08:44:34.846Z,2.50
2019-03-17T08:47:06.573Z,1.77
2019-03-17T08:49:38.865Z,1.93
2019-03-17T08:52:10.658Z,1.93
2019-03-17T08:54:42.327Z,2.20
2019-03-17T08:57:14.018Z,2.10
2019-03-17T08:59:45.830Z,1.83
2019-03-17T09:02:17.530Z,2.17
2019-03-17T09:04:49.453Z,1.90
2019-03-17T09:07:21.895Z,1.93
2019-03-17T09:09:53.521Z,1.97
2019-03-17T09:12:25.476Z,1.70
2019-03-17T09:14:57.192Z,2.90
2019-03-17T09:17:28.908Z,1.70
2019-03-17T09:20:00.662Z,1.63
2019-03-17T09:22:33.120Z,1.80
2019-03-17T09:25:04.977Z,2.10
2019-03-17T09:27:36.814Z,1.97
2019-03-17T09:30:10.866Z,2.53
2019-03-17T09:32:42.688Z,2.27
2019-03-17T09:35:14.467Z,2.57
2019-03-17T09:37:46.871Z,3.27
2019-03-17T09:40:18.535Z,1.90
2019-03-17T09:42:50.284Z,2.07
2019-03-17T09:45:22.069Z,2.03
2019-03-17T09:47:53.730Z,2.43
2019-03-17T09:50:25.419Z,1.70
2019-03-17T09:52:57.869Z,1.90
2019-03-17T09:55:29.505Z,2.00
2019-03-17T09:58:01.177Z,2.33
2019-03-17T10:00:32.902Z,2.20
2019-03-17T10:03:04.557Z,2.10
2019-03-17T10:05:36.247Z,2.00
2019-03-17T10:08:08.391Z,2.17
2019-03-17T10:10:40.118Z,2.23
2019-03-17T10:13:11.855Z,2.33
2019-03-17T10:15:43.518Z,2.20
2019-03-17T10:18:15.501Z,1.93
2019-03-17T10:20:47.178Z,2.27
2019-03-17T10:23:19.559Z,2.80
2019-03-17T10:25:50.450Z,2.40
2019-03-17T10:28:19.718Z,3.13
2019-03-17T10:30:51.482Z,2.30
2019-03-17T10:33:23.400Z,1.90
2019-03-17T10:35:55.068Z,2.77
2019-03-17T10:38:26.839Z,2.13
2019-03-17T10:40:59.006Z,2.07
2019-03-17T10:43:30.659Z,2.27
2019-03-17T10:46:02.337Z,2.17
2019-03-17T10:48:34.062Z,1.90
2019-03-17T10:51:05.791Z,1.70
2019-03-17T10:53:37.455Z,2.10
2019-03-17T10:56:09.760Z,1.83
2019-03-17T10:58:41.463Z,2.03
2019-03-17T11:01:13.206Z,1.70
2019-03-17T11:03:45.270Z,2.03
2019-03-17T11:06:17.068Z,1.60
2019-03-17T11:08:48.785Z,2.37
2019-03-17T11:11:21.114Z,1.60
2019-03-17T11:13:52.773Z,1.80
2019-03-17T11:16:24.455Z,1.80
2019-03-17T11:18:56.319Z,1.97
2019-03-17T11:21:28.216Z,1.70
2019-03-17T11:23:59.893Z,1.93
2019-03-17T11:26:32.545Z,1.77
2019-03-17T11:29:04.240Z,1.93
2019-03-17T11:31:35.936Z,1.30
2019-03-17T11:34:07.615Z,1.23
2019-03-17T11:36:39.404Z,1.30
2019-03-17T11:39:11.070Z,1.20
2019-03-17T11:41:43.455Z,1.20
2019-03-17T11:44:15.198Z,1.47
2019-03-17T11:46:46.925Z,1.50
2019-03-17T11:49:18.660Z,1.30
2019-03-17T11:51:50.345Z,1.20
2019-03-17T11:54:22.394Z,1.33
2019-03-17T11:56:55.081Z,1.43
2019-03-17T11:59:27.052Z,1.20
2019-03-17T12:01:59.159Z,1.40
2019-03-17T12:04:32.345Z,1.23
2019-03-17T12:07:04.063Z,1.30
2019-03-17T12:09:35.917Z,1.27
2019-03-17T12:12:07.785Z,1.50
2019-03-17T12:14:40.186Z,1.57
2019-03-17T12:17:11.948Z,1.70
2019-03-17T12:19:43.644Z,1.30
2019-03-17T12:22:15.272Z,1.50
2019-03-17T12:24:47.518Z,1.20
2019-03-17T12:27:19.614Z,1.10
2019-03-17T12:29:54.846Z,1.30
2019-03-17T12:32:26.794Z,1.20
2019-03-17T12:34:58.664Z,1.50
2019-03-17T12:37:30.353Z,1.20
2019-03-17T12:40:03.039Z,1.30
2019-03-17T12:42:35.964Z,1.50
2019-03-17T12:45:09.383Z,1.30
2019-03-17T12:47:41.069Z,1.20
2019-03-17T12:50:14.024Z,1.27
2019-03-17T12:52:45.984Z,1.10
2019-03-17T12:55:17.672Z,0.90
2019-03-17T12:57:49.419Z,1.10
2019-03-17T13:00:22.766Z,1.17
2019-03-17T13:02:55.093Z,1.00
2019-03-17T13:05:26.829Z,1.00
2019-03-17T13:07:58.700Z,0.80
2019-03-17T13:10:30.576Z,1.00
2019-03-17T13:13:02.310Z,0.90
2019-03-17T13:15:34.717Z,0.93
2019-03-17T13:18:06.473Z,0.80
2019-03-17T13:20:38.716Z,1.00
2019-03-17T13:23:10.400Z,1.10
2019-03-17T13:25:42.641Z,0.80
2019-03-17T13:28:14.390Z,0.90
2019-03-17T13:30:46.631Z,0.93
2019-03-17T13:33:18.324Z,0.90
2019-03-17T13:35:50.350Z,0.90
2019-03-17T13:38:22.143Z,0.90
2019-03-17T13:40:54.557Z,0.80
2019-03-17T13:43:26.307Z,0.90
2019-03-17T13:45:58.604Z,0.90
2019-03-17T13:48:30.369Z,0.93
2019-03-17T13:51:02.145Z,0.80
2019-03-17T13:53:34.021Z,0.87
2019-03-17T13:56:05.784Z,0.97
2019-03-17T13:58:37.569Z,0.80
2019-03-17T14:01:09.215Z,1.00
2019-03-17T14:03:41.517Z,0.90
2019-03-17T14:06:13.251Z,1.00
2019-03-17T14:08:46.337Z,0.90
2019-03-17T14:11:18.333Z,0.97
2019-03-17T14:13:50.350Z,0.90
2019-03-17T14:16:22.051Z,1.03
2019-03-17T14:18:54.519Z,1.00
2019-03-17T14:21:26.261Z,0.90
2019-03-17T14:23:58.040Z,1.20
2019-03-17T14:26:29.035Z,1.20
2019-03-17T14:28:58.296Z,1.03
2019-03-17T14:31:29.997Z,1.10
2019-03-17T14:34:02.492Z,1.10
2019-03-17T14:36:34.201Z,1.10
2019-03-17T14:39:07.298Z,1.00
2019-03-17T14:41:39.155Z,1.20
2019-03-17T14:44:10.884Z,1.43
2019-03-17T14:46:42.657Z,1.17
2019-03-17T14:49:15.211Z,1.20
2019-03-17T14:51:46.996Z,1.10
2019-03-17T14:54:18.894Z,1.00
2019-03-17T14:56:50.692Z,1.07
2019-03-17T14:59:22.396Z,1.00
2019-03-17T15:01:54.266Z,0.90
2019-03-17T15:04:26.734Z,1.20
2019-03-17T15:06:58.443Z,1.23
2019-03-17T15:09:30.251Z,1.27
2019-03-17T15:12:01.972Z,1.10
2019-03-17T15:14:33.905Z,1.23
2019-03-17T15:17:05.663Z,1.50
2019-03-17T15:19:38.228Z,1.30
2019-03-17T15:22:09.876Z,1.00
2019-03-17T15:24:41.590Z,1.03
2019-03-17T15:27:13.742Z,1.20
2019-03-17T15:29:45.635Z,1.20
2019-03-17T15:32:17.599Z,1.10
2019-03-17T15:34:49.726Z,1.37
2019-03-17T15:37:21.858Z,1.70
2019-03-17T15:39:53.671Z,1.30
2019-03-17T15:42:25.838Z,1.10
2019-03-17T15:44:57.569Z,1.40
2019-03-17T15:47:29.306Z,1.13
2019-03-17T15:50:01.427Z,1.10
2019-03-17T15:52:33.560Z,1.00
2019-03-17T15:55:05.888Z,1.13
2019-03-17T15:57:37.741Z,1.10
2019-03-17T16:00:24.838Z,1.30
2019-03-17T16:02:49.936Z,0.93
2019-03-17T16:05:21.789Z,1.10
2019-03-17T16:07:53.961Z,1.40
2019-03-17T16:10:26.033Z,1.70
2019-03-17T16:12:57.837Z,1.80
2019-03-17T16:15:29.509Z,2.37
2019-03-17T16:18:01.265Z,2.70
2019-03-17T16:20:33.463Z,2.20
2019-03-17T16:23:05.747Z,1.30
2019-03-17T16:25:37.741Z,1.37
2019-03-17T16:28:09.655Z,1.17
2019-03-17T16:30:41.609Z,1.37
2019-03-17T16:33:13.478Z,1.60
2019-03-17T16:35:46.358Z,1.43
2019-03-17T16:38:19.015Z,1.73
2019-03-17T16:40:50.992Z,1.70
2019-03-17T16:43:22.824Z,1.70
2019-03-17T16:45:54.589Z,1.50
2019-03-17T16:48:26.316Z,2.20
2019-03-17T16:50:58.033Z,1.30
2019-03-17T16:53:30.443Z,1.57
2019-03-17T16:56:02.167Z,1.20
2019-03-17T16:58:34.013Z,1.23
2019-03-17T17:01:06.055Z,1.20
2019-03-17T17:03:37.911Z,1.10
2019-03-17T17:06:09.829Z,1.50
2019-03-17T17:08:42.351Z,1.23
2019-03-17T17:11:14.170Z,1.40
2019-03-17T17:13:45.915Z,1.27
2019-03-17T17:16:17.798Z,1.40
2019-03-17T17:18:49.688Z,1.27
2019-03-17T17:21:21.549Z,1.63
2019-03-17T17:23:54.134Z,1.60
2019-03-17T17:26:36.563Z,1.37
2019-03-17T17:28:56.397Z,1.30
2019-03-17T17:31:30.205Z,1.40
2019-03-17T17:34:02.266Z,1.27
2019-03-17T17:36:34.359Z,1.33
2019-03-17T17:39:09.571Z,1.40
2019-03-17T17:41:41.915Z,1.33
2019-03-17T17:44:13.777Z,1.50
2019-03-17T17:46:46.056Z,1.37
2019-03-17T17:49:18.195Z,1.30
2019-03-17T17:51:50.156Z,1.50
2019-03-17T17:54:22.205Z,1.50
2019-03-17T17:56:54.143Z,1.40
2019-03-17T17:59:26.013Z,1.40
2019-03-17T18:01:58.542Z,1.27
2019-03-17T18:04:30.403Z,1.30
2019-03-17T18:07:02.352Z,1.80
2019-03-17T18:09:34.302Z,1.20
2019-03-17T18:12:06.223Z,1.30
2019-03-17T18:14:38.204Z,1.60
2019-03-17T18:17:10.790Z,1.50
2019-03-17T18:19:42.660Z,2.00
2019-03-17T18:22:14.523Z,1.30
2019-03-17T18:24:46.344Z,1.50
2019-03-17T18:27:18.423Z,1.30
2019-03-17T18:29:50.410Z,1.60
2019-03-17T18:32:22.911Z,1.50
2019-03-17T18:34:55.332Z,1.30
2019-03-17T18:37:27.131Z,1.03
2019-03-17T18:39:59.081Z,1.50
2019-03-17T18:42:33.252Z,1.10
2019-03-17T18:45:04.943Z,1.23
2019-03-17T18:47:37.530Z,1.17
2019-03-17T18:50:19.494Z,1.17
2019-03-17T18:52:43.887Z,1.30
2019-03-17T18:55:15.935Z,1.23
2019-03-17T18:57:48.099Z,1.30
2019-03-17T19:00:19.949Z,1.37
2019-03-17T19:02:52.568Z,1.00
2019-03-17T19:05:24.471Z,1.10
2019-03-17T19:07:56.433Z,1.50
2019-03-17T19:10:28.457Z,1.43
2019-03-17T19:13:00.371Z,1.47
2019-03-17T19:15:32.220Z,1.33
2019-03-17T19:18:04.119Z,1.17
2019-03-17T19:20:36.339Z,1.20
2019-03-17T19:23:08.156Z,1.50
2019-03-17T19:25:39.933Z,1.20
2019-03-17T19:28:12.113Z,1.03
2019-03-17T19:30:44.147Z,1.27
2019-03-17T19:33:16.028Z,1.60
2019-03-17T19:35:48.570Z,1.20
2019-03-17T19:38:20.576Z,1.20
2019-03-17T19:40:52.420Z,1.10
2019-03-17T19:43:24.480Z,1.03
2019-03-17T19:45:56.340Z,1.07
2019-03-17T19:48:28.032Z,1.23
2019-03-17T19:51:00.889Z,1.23
2019-03-17T19:53:32.601Z,1.30
2019-03-17T19:56:04.670Z,1.00
2019-03-17T19:58:36.431Z,1.30
2019-03-17T20:01:08.421Z,1.10
2019-03-17T20:03:40.412Z,1.10
2019-03-17T20:06:12.983Z,1.53
2019-03-17T20:08:44.944Z,2.03
2019-03-17T20:11:16.783Z,1.60
2019-03-17T20:13:48.787Z,1.47
2019-03-17T20:16:20.664Z,1.50
2019-03-17T20:18:52.771Z,1.40
2019-03-17T20:21:25.310Z,2.03
2019-03-17T20:23:57.069Z,1.57
2019-03-17T20:26:28.784Z,1.60
2019-03-17T20:29:00.785Z,1.60
2019-03-17T20:31:32.815Z,1.37
2019-03-17T20:34:04.548Z,1.30
2019-03-17T20:36:36.419Z,1.67
2019-03-17T20:39:09.571Z,1.20
2019-03-17T20:41:41.298Z,1.30
2019-03-17T20:44:13.232Z,1.17
2019-03-17T20:46:45.433Z,1.63
2019-03-17T20:49:17.564Z,1.47
2019-03-17T20:51:49.509Z,1.63
2019-03-17T20:54:22.157Z,1.97
2019-03-17T20:56:54.183Z,2.00
2019-03-17T20:59:26.379Z,1.80
2019-03-17T21:01:58.275Z,1.80
2019-03-17T21:04:30.413Z,1.60
2019-03-17T21:07:02.500Z,1.50
2019-03-17T21:09:35.309Z,1.47
2019-03-17T21:12:07.123Z,1.60
2019-03-17T21:14:38.952Z,1.50
2019-03-17T21:17:10.722Z,1.53
2019-03-17T21:19:42.764Z,1.30
2019-03-17T21:22:14.529Z,1.63
2019-03-17T21:24:47.001Z,1.40
2019-03-17T21:27:18.880Z,1.27
2019-03-17T21:29:50.652Z,1.43
2019-03-17T21:32:22.409Z,1.30
2019-03-17T21:34:54.289Z,1.63
2019-03-17T21:37:26.196Z,1.40
2019-03-17T21:39:58.551Z,1.30
2019-03-17T21:42:30.348Z,1.20
2019-03-17T21:45:02.081Z,1.30
2019-03-17T21:47:33.766Z,1.27
2019-03-17T21:50:06.948Z,1.87
2019-03-17T21:52:38.586Z,1.40
2019-03-17T21:55:11.222Z,1.00
2019-03-17T21:57:43.041Z,1.20
2019-03-17T22:00:16.207Z,1.60
2019-03-17T22:02:47.924Z,1.70
2019-03-17T22:05:19.736Z,1.03
2019-03-17T22:07:51.764Z,1.57
2019-03-17T22:10:24.123Z,1.13
2019-03-17T22:12:55.974Z,1.27
2019-03-17T22:15:27.737Z,1.33
2019-03-17T22:17:59.439Z,1.30
2019-03-17T22:20:31.266Z,1.40
2019-03-17T22:23:03.038Z,1.50
2019-03-17T22:25:34.768Z,1.50
2019-03-17T22:28:08.625Z,1.20
2019-03-17T22:30:40.566Z,1.40
2019-03-17T22:33:12.771Z,1.53
2019-03-17T22:35:44.541Z,1.50
2019-03-17T22:38:16.354Z,1.30
2019-03-17T22:40:48.050Z,1.40
2019-03-17T22:43:20.411Z,1.80
2019-03-17T22:45:52.159Z,1.43
2019-03-17T22:48:23.819Z,1.60
2019-03-17T22:50:55.586Z,1.50
2019-03-17T22:53:27.300Z,1.50
2019-03-17T22:55:58.998Z,1.33
2019-03-17T22:58:31.446Z,2.80
2019-03-17T23:01:03.324Z,1.53
2019-03-17T23:03:34.945Z,1.40
2019-03-17T23:06:06.678Z,1.40
2019-03-17T23:08:38.332Z,1.40
2019-03-17T23:11:10.006Z,1.37
2019-03-17T23:13:42.368Z,1.40
2019-03-17T23:16:14.011Z,1.30
2019-03-17T23:18:46.688Z,1.50
2019-03-17T23:21:18.363Z,1.23
2019-03-17T23:23:50.011Z,1.73
2019-03-17T23:26:21.631Z,1.60
2019-03-17T23:28:54.166Z,1.60
2019-03-17T23:31:25.813Z,1.40
2019-03-17T23:33:57.445Z,1.60
2019-03-17T23:36:29.072Z,1.30
2019-03-17T23:39:00.811Z,1.37
2019-03-17T23:41:32.416Z,1.30
2019-03-17T23:44:04.674Z,1.50
2019-03-17T23:46:36.284Z,1.33
2019-03-17T23:49:07.940Z,1.60
2019-03-17T23:51:39.551Z,1.83
2019-03-17T23:54:11.157Z,1.70
2019-03-17T23:56:42.769Z,1.53
2019-03-17T23:59:14.389Z,1.43
